sensor_id;sensor_type;location;lat;lon;timestamp;P1;durP1;ratioP1;P2;durP2;ratioP2
17890;SDS011;9071;48.220;14.480;2022-09-17T00:03:52;8.17;;;6.47;;
17890;SDS011;9071;48.220;14.480;2022-09-17T00:08:59;10.20;;;7.10;;
17890;SDS011;9071;48.220;14.480;2022-09-17T00:14:02;13.87;;;7.70;;
17890;SDS011;9071;48.220;14.480;2022-09-17T00:19:09;10.63;;;7.27;;
17890;SDS011;9071;48.220;14.480;2022-09-17T00:24:15;12.37;;;7.87;;
17890;SDS011;9071;48.220;14.480;2022-09-17T00:29:17;11.00;;;8.40;;
17890;SDS011;9071;48.220;14.480;2022-09-17T00:34:21;11.60;;;8.20;;
17890;SDS011;9071;48.220;14.480;2022-09-17T00:39:23;11.27;;;8.13;;
17890;SDS011;9071;48.220;14.480;2022-09-17T00:44:38;11.13;;;9.07;;
17890;SDS011;9071;48.220;14.480;2022-09-17T00:49:48;12.43;;;8.97;;
17890;SDS011;9071;48.220;14.480;2022-09-17T00:54:53;14.93;;;8.83;;
17890;SDS011;9071;48.220;14.480;2022-09-17T01:00:00;13.77;;;8.40;;
17890;SDS011;9071;48.220;14.480;2022-09-17T01:05:04;10.90;;;7.97;;
17890;SDS011;9071;48.220;14.480;2022-09-17T01:10:10;8.27;;;6.20;;
17890;SDS011;9071;48.220;14.480;2022-09-17T01:15:33;7.93;;;4.90;;
17890;SDS011;9071;48.220;14.480;2022-09-17T01:20:47;7.50;;;4.53;;
17890;SDS011;9071;48.220;14.480;2022-09-17T01:26:13;7.10;;;4.80;;
17890;SDS011;9071;48.220;14.480;2022-09-17T01:31:33;5.63;;;4.73;;
17890;SDS011;9071;48.220;14.480;2022-09-17T01:36:43;5.60;;;4.53;;
17890;SDS011;9071;48.220;14.480;2022-09-17T01:41:52;5.40;;;4.90;;
17890;SDS011;9071;48.220;14.480;2022-09-17T01:47:02;5.33;;;4.17;;
17890;SDS011;9071;48.220;14.480;2022-09-17T01:52:09;4.57;;;3.80;;
17890;SDS011;9071;48.220;14.480;2022-09-17T01:57:16;6.30;;;3.87;;
17890;SDS011;9071;48.220;14.480;2022-09-17T02:02:25;7.13;;;4.17;;
17890;SDS011;9071;48.220;14.480;2022-09-17T02:07:31;5.80;;;3.87;;
17890;SDS011;9071;48.220;14.480;2022-09-17T02:12:40;4.80;;;4.10;;
17890;SDS011;9071;48.220;14.480;2022-09-17T02:17:47;6.00;;;4.70;;
17890;SDS011;9071;48.220;14.480;2022-09-17T02:22:54;6.07;;;4.60;;
17890;SDS011;9071;48.220;14.480;2022-09-17T02:28:00;5.53;;;4.30;;
17890;SDS011;9071;48.220;14.480;2022-09-17T02:33:07;5.47;;;4.17;;
17890;SDS011;9071;48.220;14.480;2022-09-17T02:38:12;6.30;;;4.03;;
17890;SDS011;9071;48.220;14.480;2022-09-17T02:43:16;5.00;;;4.00;;
17890;SDS011;9071;48.220;14.480;2022-09-17T02:48:40;6.77;;;4.30;;
17890;SDS011;9071;48.220;14.480;2022-09-17T02:53:57;9.80;;;5.33;;
17890;SDS011;9071;48.220;14.480;2022-09-17T02:59:10;6.77;;;5.30;;
17890;SDS011;9071;48.220;14.480;2022-09-17T03:04:20;5.10;;;4.50;;
17890;SDS011;9071;48.220;14.480;2022-09-17T03:09:25;5.53;;;4.07;;
17890;SDS011;9071;48.220;14.480;2022-09-17T03:14:27;7.53;;;4.70;;
17890;SDS011;9071;48.220;14.480;2022-09-17T03:19:31;4.90;;;4.13;;
17890;SDS011;9071;48.220;14.480;2022-09-17T03:24:33;5.63;;;3.67;;
17890;SDS011;9071;48.220;14.480;2022-09-17T03:29:35;6.87;;;4.67;;
17890;SDS011;9071;48.220;14.480;2022-09-17T03:34:38;4.90;;;4.20;;
17890;SDS011;9071;48.220;14.480;2022-09-17T03:39:40;7.37;;;4.73;;
17890;SDS011;9071;48.220;14.480;2022-09-17T03:44:42;6.30;;;4.47;;
17890;SDS011;9071;48.220;14.480;2022-09-17T03:49:45;5.87;;;4.67;;
17890;SDS011;9071;48.220;14.480;2022-09-17T03:54:47;5.30;;;4.20;;
17890;SDS011;9071;48.220;14.480;2022-09-17T03:59:49;5.57;;;4.43;;
17890;SDS011;9071;48.220;14.480;2022-09-17T04:04:53;8.50;;;4.73;;
17890;SDS011;9071;48.220;14.480;2022-09-17T04:09:55;9.13;;;5.07;;
17890;SDS011;9071;48.220;14.480;2022-09-17T04:14:57;6.57;;;5.03;;
17890;SDS011;9071;48.220;14.480;2022-09-17T04:20:01;6.10;;;4.33;;
17890;SDS011;9071;48.220;14.480;2022-09-17T04:25:05;9.57;;;5.20;;
17890;SDS011;9071;48.220;14.480;2022-09-17T04:30:07;7.60;;;5.63;;
17890;SDS011;9071;48.220;14.480;2022-09-17T04:35:12;6.97;;;5.70;;
17890;SDS011;9071;48.220;14.480;2022-09-17T04:40:14;8.47;;;5.67;;
17890;SDS011;9071;48.220;14.480;2022-09-17T04:45:26;6.60;;;5.43;;
17890;SDS011;9071;48.220;14.480;2022-09-17T04:50:30;8.00;;;6.10;;
17890;SDS011;9071;48.220;14.480;2022-09-17T04:55:34;7.57;;;6.40;;
17890;SDS011;9071;48.220;14.480;2022-09-17T05:00:37;8.00;;;6.00;;
17890;SDS011;9071;48.220;14.480;2022-09-17T05:05:41;8.50;;;5.53;;
17890;SDS011;9071;48.220;14.480;2022-09-17T05:10:43;7.90;;;5.43;;
17890;SDS011;9071;48.220;14.480;2022-09-17T05:15:45;8.37;;;5.20;;
17890;SDS011;9071;48.220;14.480;2022-09-17T05:20:48;6.10;;;4.67;;
17890;SDS011;9071;48.220;14.480;2022-09-17T05:25:50;8.37;;;4.27;;
17890;SDS011;9071;48.220;14.480;2022-09-17T05:30:53;4.50;;;3.63;;
17890;SDS011;9071;48.220;14.480;2022-09-17T05:35:56;4.57;;;2.80;;
17890;SDS011;9071;48.220;14.480;2022-09-17T05:41:02;5.63;;;2.73;;
17890;SDS011;9071;48.220;14.480;2022-09-17T05:46:05;2.90;;;2.30;;
17890;SDS011;9071;48.220;14.480;2022-09-17T05:51:09;3.93;;;1.97;;
17890;SDS011;9071;48.220;14.480;2022-09-17T05:56:11;5.63;;;2.10;;
17890;SDS011;9071;48.220;14.480;2022-09-17T06:01:13;3.47;;;2.03;;
17890;SDS011;9071;48.220;14.480;2022-09-17T06:06:17;6.00;;;2.40;;
17890;SDS011;9071;48.220;14.480;2022-09-17T06:11:19;3.63;;;2.10;;
17890;SDS011;9071;48.220;14.480;2022-09-17T06:16:21;3.90;;;2.10;;
17890;SDS011;9071;48.220;14.480;2022-09-17T06:21:25;3.90;;;2.30;;
17890;SDS011;9071;48.220;14.480;2022-09-17T06:26:27;3.40;;;2.43;;
17890;SDS011;9071;48.220;14.480;2022-09-17T06:31:29;5.90;;;2.97;;
17890;SDS011;9071;48.220;14.480;2022-09-17T06:36:33;11.97;;;3.17;;
17890;SDS011;9071;48.220;14.480;2022-09-17T06:41:35;5.13;;;2.90;;
17890;SDS011;9071;48.220;14.480;2022-09-17T06:46:37;6.57;;;2.27;;
17890;SDS011;9071;48.220;14.480;2022-09-17T06:51:40;8.87;;;3.40;;
17890;SDS011;9071;48.220;14.480;2022-09-17T06:56:44;3.70;;;2.90;;
17890;SDS011;9071;48.220;14.480;2022-09-17T07:01:46;6.13;;;3.67;;
17890;SDS011;9071;48.220;14.480;2022-09-17T07:06:50;6.10;;;3.23;;
17890;SDS011;9071;48.220;14.480;2022-09-17T07:11:52;8.20;;;3.63;;
17890;SDS011;9071;48.220;14.480;2022-09-17T07:16:54;6.10;;;3.73;;
17890;SDS011;9071;48.220;14.480;2022-09-17T07:21:57;5.00;;;2.97;;
17890;SDS011;9071;48.220;14.480;2022-09-17T07:26:59;3.70;;;2.83;;
17890;SDS011;9071;48.220;14.480;2022-09-17T07:32:02;6.53;;;3.03;;
17890;SDS011;9071;48.220;14.480;2022-09-17T07:37:05;10.10;;;4.20;;
17890;SDS011;9071;48.220;14.480;2022-09-17T07:42:08;6.53;;;3.90;;
17890;SDS011;9071;48.220;14.480;2022-09-17T07:47:10;5.03;;;2.83;;
17890;SDS011;9071;48.220;14.480;2022-09-17T07:52:14;2.73;;;2.43;;
17890;SDS011;9071;48.220;14.480;2022-09-17T07:57:16;3.80;;;2.77;;
17890;SDS011;9071;48.220;14.480;2022-09-17T08:02:18;6.43;;;2.87;;
17890;SDS011;9071;48.220;14.480;2022-09-17T08:07:22;7.77;;;2.47;;
17890;SDS011;9071;48.220;14.480;2022-09-17T08:12:24;3.83;;;2.80;;
17890;SDS011;9071;48.220;14.480;2022-09-17T08:17:26;5.50;;;2.83;;
17890;SDS011;9071;48.220;14.480;2022-09-17T08:22:29;4.93;;;2.70;;
17890;SDS011;9071;48.220;14.480;2022-09-17T08:27:31;6.77;;;2.90;;
17890;SDS011;9071;48.220;14.480;2022-09-17T08:32:33;5.00;;;2.47;;
17890;SDS011;9071;48.220;14.480;2022-09-17T08:37:37;3.87;;;2.30;;
17890;SDS011;9071;48.220;14.480;2022-09-17T08:42:40;5.17;;;2.93;;
17890;SDS011;9071;48.220;14.480;2022-09-17T08:47:51;4.93;;;2.93;;
17890;SDS011;9071;48.220;14.480;2022-09-17T08:53:14;8.37;;;3.37;;
17890;SDS011;9071;48.220;14.480;2022-09-17T08:58:39;5.37;;;3.37;;
17890;SDS011;9071;48.220;14.480;2022-09-17T09:03:52;4.43;;;3.20;;
17890;SDS011;9071;48.220;14.480;2022-09-17T09:09:05;7.00;;;3.50;;
17890;SDS011;9071;48.220;14.480;2022-09-17T09:14:14;5.70;;;3.47;;
17890;SDS011;9071;48.220;14.480;2022-09-17T09:19:22;4.77;;;3.50;;
17890;SDS011;9071;48.220;14.480;2022-09-17T09:24:29;4.00;;;3.10;;
17890;SDS011;9071;48.220;14.480;2022-09-17T09:29:39;4.53;;;3.00;;
17890;SDS011;9071;48.220;14.480;2022-09-17T09:34:48;10.83;;;3.37;;
17890;SDS011;9071;48.220;14.480;2022-09-17T09:39:53;8.23;;;2.67;;
17890;SDS011;9071;48.220;14.480;2022-09-17T09:44:59;5.23;;;2.60;;
17890;SDS011;9071;48.220;14.480;2022-09-17T09:50:07;5.70;;;2.40;;
17890;SDS011;9071;48.220;14.480;2022-09-17T09:55:28;5.77;;;2.70;;
17890;SDS011;9071;48.220;14.480;2022-09-17T10:00:47;6.77;;;2.70;;
17890;SDS011;9071;48.220;14.480;2022-09-17T10:05:53;4.70;;;2.63;;
17890;SDS011;9071;48.220;14.480;2022-09-17T10:10:59;5.30;;;2.33;;
17890;SDS011;9071;48.220;14.480;2022-09-17T10:16:15;4.37;;;2.03;;
17890;SDS011;9071;48.220;14.480;2022-09-17T10:21:19;6.30;;;2.17;;
17890;SDS011;9071;48.220;14.480;2022-09-17T10:26:24;2.60;;;1.70;;
17890;SDS011;9071;48.220;14.480;2022-09-17T10:31:33;7.33;;;2.20;;
17890;SDS011;9071;48.220;14.480;2022-09-17T10:36:47;3.90;;;1.60;;
17890;SDS011;9071;48.220;14.480;2022-09-17T10:41:55;6.30;;;1.93;;
17890;SDS011;9071;48.220;14.480;2022-09-17T10:47:03;4.47;;;2.07;;
17890;SDS011;9071;48.220;14.480;2022-09-17T10:52:09;4.47;;;1.60;;
17890;SDS011;9071;48.220;14.480;2022-09-17T10:57:18;3.70;;;1.57;;
17890;SDS011;9071;48.220;14.480;2022-09-17T11:08:13;2.23;;;1.50;;
17890;SDS011;9071;48.220;14.480;2022-09-17T11:13:25;5.20;;;1.87;;
17890;SDS011;9071;48.220;14.480;2022-09-17T11:18:37;5.77;;;1.67;;
17890;SDS011;9071;48.220;14.480;2022-09-17T11:23:51;3.50;;;1.47;;
17890;SDS011;9071;48.220;14.480;2022-09-17T11:29:16;4.63;;;1.30;;
17890;SDS011;9071;48.220;14.480;2022-09-17T11:34:35;5.47;;;1.43;;
17890;SDS011;9071;48.220;14.480;2022-09-17T11:39:46;1.23;;;0.80;;
17890;SDS011;9071;48.220;14.480;2022-09-17T11:44:56;2.03;;;0.90;;
17890;SDS011;9071;48.220;14.480;2022-09-17T11:50:03;2.50;;;0.73;;
17890;SDS011;9071;48.220;14.480;2022-09-17T11:55:17;3.13;;;1.10;;
17890;SDS011;9071;48.220;14.480;2022-09-17T12:00:24;1.47;;;0.90;;
17890;SDS011;9071;48.220;14.480;2022-09-17T12:05:32;1.07;;;0.70;;
17890;SDS011;9071;48.220;14.480;2022-09-17T12:10:41;2.87;;;1.00;;
17890;SDS011;9071;48.220;14.480;2022-09-17T12:15:50;1.17;;;0.90;;
17890;SDS011;9071;48.220;14.480;2022-09-17T12:20:57;1.90;;;1.00;;
17890;SDS011;9071;48.220;14.480;2022-09-17T12:26:03;2.03;;;0.73;;
17890;SDS011;9071;48.220;14.480;2022-09-17T12:31:22;1.37;;;0.73;;
17890;SDS011;9071;48.220;14.480;2022-09-17T12:36:35;2.80;;;1.00;;
17890;SDS011;9071;48.220;14.480;2022-09-17T12:41:50;0.73;;;0.60;;
17890;SDS011;9071;48.220;14.480;2022-09-17T12:47:09;3.43;;;1.10;;
17890;SDS011;9071;48.220;14.480;2022-09-17T12:52:34;5.23;;;0.90;;
17890;SDS011;9071;48.220;14.480;2022-09-17T12:57:46;3.43;;;1.30;;
17890;SDS011;9071;48.220;14.480;2022-09-17T13:02:59;0.83;;;0.50;;
17890;SDS011;9071;48.220;14.480;2022-09-17T13:08:17;0.63;;;0.60;;
17890;SDS011;9071;48.220;14.480;2022-09-17T13:13:41;3.80;;;1.03;;
17890;SDS011;9071;48.220;14.480;2022-09-17T13:18:53;1.80;;;0.40;;
17890;SDS011;9071;48.220;14.480;2022-09-17T13:24:00;1.60;;;0.50;;
17890;SDS011;9071;48.220;14.480;2022-09-17T13:34:51;0.43;;;0.40;;
17890;SDS011;9071;48.220;14.480;2022-09-17T13:39:53;2.10;;;0.70;;
17890;SDS011;9071;48.220;14.480;2022-09-17T13:45:01;2.10;;;0.80;;
17890;SDS011;9071;48.220;14.480;2022-09-17T13:50:08;1.63;;;0.90;;
17890;SDS011;9071;48.220;14.480;2022-09-17T14:05:56;1.10;;;1.00;;
17890;SDS011;9071;48.220;14.480;2022-09-17T14:11:36;2.17;;;1.10;;
17890;SDS011;9071;48.220;14.480;2022-09-17T14:16:46;4.20;;;1.20;;
17890;SDS011;9071;48.220;14.480;2022-09-17T14:21:57;2.67;;;1.40;;
17890;SDS011;9071;48.220;14.480;2022-09-17T14:27:09;4.13;;;1.37;;
17890;SDS011;9071;48.220;14.480;2022-09-17T14:32:15;3.10;;;1.47;;
17890;SDS011;9071;48.220;14.480;2022-09-17T14:37:21;2.70;;;1.43;;
17890;SDS011;9071;48.220;14.480;2022-09-17T14:42:26;4.20;;;1.70;;
17890;SDS011;9071;48.220;14.480;2022-09-17T14:47:35;3.77;;;1.60;;
17890;SDS011;9071;48.220;14.480;2022-09-17T14:52:39;2.20;;;1.50;;
17890;SDS011;9071;48.220;14.480;2022-09-17T14:57:48;3.50;;;1.50;;
17890;SDS011;9071;48.220;14.480;2022-09-17T15:02:53;2.93;;;1.60;;
17890;SDS011;9071;48.220;14.480;2022-09-17T15:08:12;3.57;;;1.53;;
17890;SDS011;9071;48.220;14.480;2022-09-17T15:13:16;3.30;;;1.93;;
17890;SDS011;9071;48.220;14.480;2022-09-17T15:18:21;4.63;;;1.87;;
17890;SDS011;9071;48.220;14.480;2022-09-17T15:23:33;2.67;;;1.63;;
17890;SDS011;9071;48.220;14.480;2022-09-17T15:28:38;3.87;;;1.80;;
17890;SDS011;9071;48.220;14.480;2022-09-17T15:33:42;2.77;;;1.87;;
17890;SDS011;9071;48.220;14.480;2022-09-17T15:38:46;4.90;;;2.37;;
17890;SDS011;9071;48.220;14.480;2022-09-17T15:43:49;5.13;;;2.23;;
17890;SDS011;9071;48.220;14.480;2022-09-17T15:48:51;3.83;;;2.10;;
17890;SDS011;9071;48.220;14.480;2022-09-17T15:53:55;3.80;;;2.37;;
17890;SDS011;9071;48.220;14.480;2022-09-17T15:59:00;6.03;;;2.40;;
17890;SDS011;9071;48.220;14.480;2022-09-17T16:09:42;5.67;;;2.47;;
17890;SDS011;9071;48.220;14.480;2022-09-17T16:14:47;4.90;;;2.67;;
17890;SDS011;9071;48.220;14.480;2022-09-17T16:19:51;4.87;;;2.40;;
17890;SDS011;9071;48.220;14.480;2022-09-17T16:24:55;2.97;;;2.50;;
17890;SDS011;9071;48.220;14.480;2022-09-17T16:29:59;7.67;;;3.17;;
17890;SDS011;9071;48.220;14.480;2022-09-17T16:35:03;6.10;;;3.47;;
17890;SDS011;9071;48.220;14.480;2022-09-17T16:40:08;5.60;;;3.30;;
17890;SDS011;9071;48.220;14.480;2022-09-17T16:45:12;8.17;;;3.80;;
17890;SDS011;9071;48.220;14.480;2022-09-17T16:50:15;7.23;;;2.40;;
17890;SDS011;9071;48.220;14.480;2022-09-17T16:55:20;5.93;;;3.13;;
17890;SDS011;9071;48.220;14.480;2022-09-17T17:00:22;6.87;;;2.90;;
17890;SDS011;9071;48.220;14.480;2022-09-17T17:05:24;6.30;;;3.53;;
17890;SDS011;9071;48.220;14.480;2022-09-17T17:10:28;6.83;;;2.60;;
17890;SDS011;9071;48.220;14.480;2022-09-17T17:15:30;4.00;;;2.20;;
17890;SDS011;9071;48.220;14.480;2022-09-17T17:20:33;4.50;;;2.00;;
17890;SDS011;9071;48.220;14.480;2022-09-17T17:25:37;6.97;;;2.27;;
17890;SDS011;9071;48.220;14.480;2022-09-17T17:30:39;4.83;;;2.63;;
17890;SDS011;9071;48.220;14.480;2022-09-17T17:35:40;14.43;;;3.77;;
17890;SDS011;9071;48.220;14.480;2022-09-17T17:40:45;4.83;;;2.50;;
17890;SDS011;9071;48.220;14.480;2022-09-17T17:45:47;5.53;;;2.60;;
17890;SDS011;9071;48.220;14.480;2022-09-17T17:50:49;6.60;;;2.80;;
17890;SDS011;9071;48.220;14.480;2022-09-17T17:55:56;11.37;;;4.80;;
17890;SDS011;9071;48.220;14.480;2022-09-17T18:00:59;7.53;;;3.63;;
17890;SDS011;9071;48.220;14.480;2022-09-17T18:06:10;5.80;;;2.33;;
17890;SDS011;9071;48.220;14.480;2022-09-17T18:11:14;4.20;;;3.03;;
17890;SDS011;9071;48.220;14.480;2022-09-17T18:16:16;4.17;;;2.00;;
17890;SDS011;9071;48.220;14.480;2022-09-17T18:21:19;2.37;;;2.00;;
17890;SDS011;9071;48.220;14.480;2022-09-17T18:26:25;3.53;;;3.23;;
17890;SDS011;9071;48.220;14.480;2022-09-17T18:31:28;3.27;;;1.93;;
17890;SDS011;9071;48.220;14.480;2022-09-17T18:36:32;2.30;;;1.80;;
17890;SDS011;9071;48.220;14.480;2022-09-17T18:41:36;2.77;;;1.90;;
17890;SDS011;9071;48.220;14.480;2022-09-17T18:46:40;2.60;;;1.90;;
17890;SDS011;9071;48.220;14.480;2022-09-17T18:51:42;3.70;;;2.07;;
17890;SDS011;9071;48.220;14.480;2022-09-17T18:56:45;7.37;;;4.30;;
17890;SDS011;9071;48.220;14.480;2022-09-17T19:01:47;5.27;;;2.10;;
17890;SDS011;9071;48.220;14.480;2022-09-17T19:06:49;2.17;;;1.40;;
17890;SDS011;9071;48.220;14.480;2022-09-17T19:11:53;2.03;;;1.10;;
17890;SDS011;9071;48.220;14.480;2022-09-17T19:16:55;1.43;;;1.30;;
17890;SDS011;9071;48.220;14.480;2022-09-17T19:21:56;3.80;;;1.20;;
17890;SDS011;9071;48.220;14.480;2022-09-17T19:27:00;2.20;;;1.30;;
17890;SDS011;9071;48.220;14.480;2022-09-17T19:32:03;2.50;;;1.30;;
17890;SDS011;9071;48.220;14.480;2022-09-17T19:37:05;7.10;;;1.50;;
17890;SDS011;9071;48.220;14.480;2022-09-17T19:42:09;3.53;;;1.30;;
17890;SDS011;9071;48.220;14.480;2022-09-17T19:47:11;2.63;;;1.00;;
17890;SDS011;9071;48.220;14.480;2022-09-17T19:52:13;5.87;;;2.10;;
17890;SDS011;9071;48.220;14.480;2022-09-17T19:57:16;2.50;;;1.33;;
17890;SDS011;9071;48.220;14.480;2022-09-17T20:02:18;4.80;;;3.10;;
17890;SDS011;9071;48.220;14.480;2022-09-17T20:07:20;5.07;;;1.40;;
17890;SDS011;9071;48.220;14.480;2022-09-17T20:12:24;2.40;;;1.13;;
17890;SDS011;9071;48.220;14.480;2022-09-17T20:17:27;3.23;;;1.20;;
17890;SDS011;9071;48.220;14.480;2022-09-17T20:22:29;2.03;;;1.23;;
17890;SDS011;9071;48.220;14.480;2022-09-17T20:27:33;3.47;;;1.50;;
17890;SDS011;9071;48.220;14.480;2022-09-17T20:32:35;4.00;;;1.60;;
17890;SDS011;9071;48.220;14.480;2022-09-17T20:37:37;2.87;;;1.43;;
17890;SDS011;9071;48.220;14.480;2022-09-17T20:42:40;1.67;;;1.20;;
17890;SDS011;9071;48.220;14.480;2022-09-17T20:47:42;2.17;;;1.50;;
17890;SDS011;9071;48.220;14.480;2022-09-17T20:52:44;3.97;;;1.43;;
17890;SDS011;9071;48.220;14.480;2022-09-17T20:57:48;6.13;;;2.83;;
17890;SDS011;9071;48.220;14.480;2022-09-17T21:02:52;2.43;;;1.67;;
17890;SDS011;9071;48.220;14.480;2022-09-17T21:07:55;2.73;;;1.70;;
17890;SDS011;9071;48.220;14.480;2022-09-17T21:12:59;4.07;;;2.00;;
17890;SDS011;9071;48.220;14.480;2022-09-17T21:18:00;2.60;;;1.70;;
17890;SDS011;9071;48.220;14.480;2022-09-17T21:23:03;4.53;;;1.93;;
17890;SDS011;9071;48.220;14.480;2022-09-17T21:28:06;7.27;;;2.13;;
17890;SDS011;9071;48.220;14.480;2022-09-17T21:33:08;5.70;;;2.27;;
17890;SDS011;9071;48.220;14.480;2022-09-17T21:38:10;4.50;;;2.10;;
17890;SDS011;9071;48.220;14.480;2022-09-17T21:43:13;6.33;;;2.20;;
17890;SDS011;9071;48.220;14.480;2022-09-17T21:48:15;3.53;;;1.97;;
17890;SDS011;9071;48.220;14.480;2022-09-17T21:53:17;4.90;;;2.17;;
17890;SDS011;9071;48.220;14.480;2022-09-17T21:58:21;4.17;;;1.97;;
17890;SDS011;9071;48.220;14.480;2022-09-17T22:03:23;4.43;;;2.07;;
17890;SDS011;9071;48.220;14.480;2022-09-17T22:08:25;3.93;;;2.03;;
17890;SDS011;9071;48.220;14.480;2022-09-17T22:13:29;2.97;;;2.00;;
17890;SDS011;9071;48.220;14.480;2022-09-17T22:18:32;4.03;;;2.07;;
17890;SDS011;9071;48.220;14.480;2022-09-17T22:23:36;3.83;;;1.87;;
17890;SDS011;9071;48.220;14.480;2022-09-17T22:28:39;4.10;;;1.90;;
17890;SDS011;9071;48.220;14.480;2022-09-17T22:33:42;2.83;;;2.20;;
17890;SDS011;9071;48.220;14.480;2022-09-17T22:38:46;2.80;;;1.70;;
17890;SDS011;9071;48.220;14.480;2022-09-17T22:43:52;3.47;;;1.90;;
17890;SDS011;9071;48.220;14.480;2022-09-17T22:48:56;5.37;;;1.70;;
17890;SDS011;9071;48.220;14.480;2022-09-17T22:53:58;3.13;;;1.53;;
17890;SDS011;9071;48.220;14.480;2022-09-17T22:59:02;3.80;;;1.50;;
17890;SDS011;9071;48.220;14.480;2022-09-17T23:04:04;5.27;;;1.73;;
17890;SDS011;9071;48.220;14.480;2022-09-17T23:09:07;2.57;;;1.13;;
17890;SDS011;9071;48.220;14.480;2022-09-17T23:14:11;1.70;;;1.47;;
17890;SDS011;9071;48.220;14.480;2022-09-17T23:19:15;2.37;;;1.30;;
17890;SDS011;9071;48.220;14.480;2022-09-17T23:24:19;1.50;;;1.17;;
17890;SDS011;9071;48.220;14.480;2022-09-17T23:29:23;2.73;;;1.37;;
17890;SDS011;9071;48.220;14.480;2022-09-17T23:34:25;2.60;;;1.10;;
17890;SDS011;9071;48.220;14.480;2022-09-17T23:39:27;1.20;;;1.10;;
17890;SDS011;9071;48.220;14.480;2022-09-17T23:44:30;1.77;;;1.23;;
17890;SDS011;9071;48.220;14.480;2022-09-17T23:49:33;2.00;;;1.33;;
17890;SDS011;9071;48.220;14.480;2022-09-17T23:54:35;2.20;;;1.20;;
17890;SDS011;9071;48.220;14.480;2022-09-17T23:59:38;4.13;;;1.40;;
